createdAt,value
2017-11-26T00:00:47.688Z,55.40
2017-11-26T00:03:17.194Z,55.00
2017-11-26T00:05:46.703Z,54.80
2017-11-26T00:08:16.212Z,55.00
2017-11-26T00:10:45.106Z,55.00
2017-11-26T00:13:14.089Z,55.30
2017-11-26T00:15:42.879Z,55.20
2017-11-26T00:18:11.879Z,55.40
2017-11-26T00:20:40.761Z,55.10
2017-11-26T00:23:09.453Z,54.50
2017-11-26T00:25:38.344Z,54.90
2017-11-26T00:28:07.136Z,54.50
2017-11-26T00:30:35.816Z,54.80
2017-11-26T00:33:04.669Z,53.90
2017-11-26T00:35:33.598Z,54.60
2017-11-26T00:38:02.501Z,54.20
2017-11-26T00:40:31.175Z,54.60
2017-11-26T00:43:00.070Z,55.20
2017-11-26T00:45:28.909Z,55.30
2017-11-26T00:47:57.847Z,55.10
2017-11-26T00:50:26.738Z,55.10
2017-11-26T00:52:55.422Z,55.30
2017-11-26T00:55:24.315Z,55.60
2017-11-26T00:57:53.206Z,55.70
2017-11-26T01:00:21.894Z,55.90
2017-11-26T01:02:50.783Z,55.80
2017-11-26T01:05:19.675Z,55.80
2017-11-26T01:07:48.360Z,56.30
2017-11-26T01:10:17.047Z,56.40
2017-11-26T01:12:45.952Z,56.30
2017-11-26T01:15:14.621Z,55.60
2017-11-26T01:17:43.308Z,55.40
2017-11-26T01:20:12.200Z,55.50
2017-11-26T01:22:43.755Z,55.20
2017-11-26T01:25:12.646Z,54.60
2017-11-26T01:27:41.279Z,54.50
2017-11-26T01:30:10.228Z,54.40
2017-11-26T01:32:39.115Z,54.40
2017-11-26T01:35:07.808Z,54.40
2017-11-26T01:37:36.499Z,54.20
2017-11-26T01:40:05.400Z,54.10
2017-11-26T01:42:34.063Z,54.60
2017-11-26T01:45:02.754Z,54.80
2017-11-26T01:47:31.653Z,55.20
2017-11-26T01:50:00.325Z,55.50
2017-11-26T01:52:29.217Z,55.00
2017-11-26T01:54:58.007Z,55.30
2017-11-26T01:57:26.706Z,54.70
2017-11-26T01:59:56.401Z,55.10
2017-11-26T02:02:25.292Z,55.10
2017-11-26T02:04:54.125Z,54.90
2017-11-26T02:07:22.869Z,54.90
2017-11-26T02:09:51.980Z,54.40
2017-11-26T02:12:20.873Z,54.00
2017-11-26T02:14:49.707Z,53.50
2017-11-26T02:17:18.641Z,53.80
2017-11-26T02:19:47.742Z,53.60
2017-11-26T02:22:17.461Z,53.20
2017-11-26T02:24:46.441Z,53.20
2017-11-26T02:27:15.330Z,52.60
2017-11-26T02:29:44.231Z,53.10
2017-11-26T02:32:24.689Z,53.20
2017-11-26T02:35:05.152Z,53.20
2017-11-26T02:37:34.247Z,53.50
2017-11-26T02:40:03.149Z,54.30
2017-11-26T02:42:32.026Z,54.00
2017-11-26T02:45:00.915Z,54.70
2017-11-26T02:47:30.013Z,54.80
2017-11-26T02:49:58.903Z,54.50
2017-11-26T02:52:28.613Z,54.40
2017-11-26T02:54:57.505Z,54.40
2017-11-26T02:57:27.215Z,54.40
2017-11-26T02:59:56.924Z,55.40
2017-11-26T03:02:27.044Z,55.70
2017-11-26T03:04:56.555Z,54.50
2017-11-26T03:07:25.242Z,54.40
2017-11-26T03:09:54.127Z,55.20
2017-11-26T03:12:22.974Z,55.40
2017-11-26T03:14:51.806Z,55.20
2017-11-26T03:17:20.699Z,55.00
2017-11-26T03:19:49.584Z,55.30
2017-11-26T03:22:18.476Z,55.20
2017-11-26T03:24:47.104Z,54.80
2017-11-26T03:27:16.054Z,54.80
2017-11-26T03:29:44.947Z,55.10
2017-11-26T03:32:13.733Z,54.70
2017-11-26T03:34:42.624Z,54.80
2017-11-26T03:37:12.338Z,54.40
2017-11-26T03:39:41.840Z,54.30
2017-11-26T03:42:10.732Z,54.20
2017-11-26T03:44:40.237Z,54.40
2017-11-26T03:47:09.070Z,54.40
2017-11-26T03:49:37.917Z,54.10
2017-11-26T03:52:07.001Z,54.60
2017-11-26T03:54:36.313Z,54.40
2017-11-26T03:57:05.108Z,54.10
2017-11-26T03:59:33.789Z,53.40
2017-11-26T04:02:02.480Z,53.90
2017-11-26T04:04:31.796Z,53.80
2017-11-26T04:07:00.665Z,54.00
2017-11-26T04:09:29.559Z,54.20
2017-11-26T04:11:58.654Z,54.30
2017-11-26T04:14:27.751Z,53.90
2017-11-26T04:16:56.958Z,54.00
2017-11-26T04:19:25.736Z,53.80
2017-11-26T04:21:54.628Z,53.90
2017-11-26T04:24:23.316Z,54.30
2017-11-26T04:26:52.215Z,54.10
2017-11-26T04:29:22.117Z,54.60
2017-11-26T04:31:51.315Z,54.50
2017-11-26T04:34:20.414Z,54.80
2017-11-26T04:36:50.233Z,54.70
2017-11-26T04:39:19.016Z,54.70
2017-11-26T04:41:47.805Z,54.80
2017-11-26T04:44:16.697Z,55.00
2017-11-26T04:46:45.789Z,54.90
2017-11-26T04:49:15.091Z,55.10
2017-11-26T04:51:43.980Z,54.90
2017-11-26T04:54:13.284Z,55.30
2017-11-26T04:56:42.378Z,54.90
2017-11-26T04:59:11.882Z,55.50
2017-11-26T05:01:40.985Z,55.10
2017-11-26T05:04:10.665Z,54.80
2017-11-26T05:06:39.930Z,54.70
2017-11-26T05:09:08.880Z,54.90
2017-11-26T05:11:39.023Z,54.60
2017-11-26T05:14:08.927Z,54.40
2017-11-26T05:16:37.807Z,54.80
2017-11-26T05:19:07.107Z,55.00
2017-11-26T05:21:36.211Z,54.70
2017-11-26T05:24:05.185Z,54.80
2017-11-26T05:26:34.279Z,55.00
2017-11-26T05:29:04.133Z,55.00
2017-11-26T05:31:34.068Z,55.20
2017-11-26T05:34:03.954Z,54.90
2017-11-26T05:36:34.817Z,54.90
2017-11-26T05:39:03.865Z,54.90
2017-11-26T05:41:32.963Z,54.90
2017-11-26T05:44:01.852Z,55.90
2017-11-26T05:46:30.999Z,55.10
2017-11-26T05:48:59.842Z,54.70
2017-11-26T05:51:28.917Z,54.20
2017-11-26T05:53:58.035Z,54.30
2017-11-26T05:56:27.124Z,54.40
2017-11-26T05:59:01.758Z,54.70
2017-11-26T06:01:30.644Z,55.00
2017-11-26T06:04:00.156Z,55.20
2017-11-26T06:06:29.051Z,54.40
2017-11-26T06:08:57.935Z,54.90
2017-11-26T06:11:26.784Z,54.50
2017-11-26T06:13:55.718Z,55.10
2017-11-26T06:16:24.607Z,54.80
2017-11-26T06:18:53.301Z,55.40
2017-11-26T06:21:22.182Z,55.70
2017-11-26T06:23:51.169Z,55.40
2017-11-26T06:26:20.859Z,54.80
2017-11-26T06:28:53.360Z,55.00
2017-11-26T06:31:25.012Z,55.10
2017-11-26T06:33:59.844Z,55.10
2017-11-26T06:36:28.532Z,55.30
2017-11-26T06:38:57.218Z,55.20
2017-11-26T06:41:26.108Z,55.70
2017-11-26T06:43:55.003Z,55.50
2017-11-26T06:46:24.095Z,55.60
2017-11-26T06:48:52.989Z,55.40
2017-11-26T06:51:21.887Z,55.30
2017-11-26T06:53:50.770Z,55.40
2017-11-26T06:56:19.636Z,55.80
2017-11-26T06:58:48.349Z,55.80
2017-11-26T07:01:17.243Z,55.70
2017-11-26T07:03:46.131Z,55.60
2017-11-26T07:06:15.020Z,55.50
2017-11-26T07:08:43.910Z,55.70
2017-11-26T07:11:12.904Z,55.50
2017-11-26T07:13:41.799Z,55.60
2017-11-26T07:16:10.689Z,55.90
2017-11-26T07:18:39.581Z,55.50
2017-11-26T07:21:08.472Z,55.20
2017-11-26T07:23:37.154Z,55.50
2017-11-26T07:26:05.841Z,54.80
2017-11-26T07:28:34.740Z,54.60
2017-11-26T07:31:03.626Z,54.40
2017-11-26T07:33:32.418Z,54.70
2017-11-26T07:36:01.106Z,54.60
2017-11-26T07:38:29.785Z,54.60
2017-11-26T07:40:58.678Z,53.80
2017-11-26T07:43:27.363Z,54.00
2017-11-26T07:45:56.873Z,54.10
2017-11-26T07:48:25.769Z,54.20
2017-11-26T07:50:54.659Z,54.40
2017-11-26T07:53:23.340Z,54.50
2017-11-26T07:55:52.029Z,54.60
2017-11-26T07:58:21.677Z,54.40
2017-11-26T08:00:50.374Z,54.30
2017-11-26T08:03:19.104Z,54.40
2017-11-26T08:05:47.789Z,54.60
2017-11-26T08:08:16.486Z,54.50
2017-11-26T08:10:45.374Z,54.10
2017-11-26T08:13:14.005Z,54.00
2017-11-26T08:15:42.741Z,54.20
2017-11-26T08:18:11.630Z,54.30
2017-11-26T08:20:40.526Z,54.50
2017-11-26T08:23:09.418Z,54.60
2017-11-26T08:25:38.097Z,55.40
2017-11-26T08:28:06.659Z,55.10
2017-11-26T08:30:35.471Z,55.10
2017-11-26T08:33:04.163Z,55.70
2017-11-26T08:35:32.855Z,55.40
2017-11-26T08:38:01.536Z,55.50
2017-11-26T08:40:30.427Z,55.20
2017-11-26T08:42:59.110Z,55.40
2017-11-26T08:45:28.015Z,55.30
2017-11-26T08:47:57.051Z,55.10
2017-11-26T08:50:25.989Z,55.20
2017-11-26T08:52:54.813Z,55.20
2017-11-26T08:55:23.565Z,55.50
2017-11-26T08:57:52.459Z,55.30
2017-11-26T09:00:22.269Z,55.70
2017-11-26T09:02:51.324Z,55.70
2017-11-26T09:05:20.317Z,55.30
2017-11-26T09:07:51.648Z,55.10
2017-11-26T09:10:20.548Z,55.10
2017-11-26T09:12:50.204Z,54.70
2017-11-26T09:15:19.518Z,54.60
2017-11-26T09:17:49.215Z,54.20
2017-11-26T09:20:17.931Z,54.20
2017-11-26T09:22:46.893Z,54.40
2017-11-26T09:25:15.686Z,54.00
2017-11-26T09:27:44.575Z,54.20
2017-11-26T09:30:13.469Z,54.10
2017-11-26T09:32:42.152Z,53.70
2017-11-26T09:35:11.043Z,54.10
2017-11-26T09:37:40.354Z,54.20
2017-11-26T09:40:09.233Z,54.40
2017-11-26T09:42:38.124Z,53.80
2017-11-26T09:45:07.015Z,53.90
2017-11-26T09:47:35.703Z,54.50
2017-11-26T09:50:04.431Z,54.20
2017-11-26T09:52:33.595Z,54.70
2017-11-26T09:55:03.321Z,55.10
2017-11-26T09:57:32.200Z,55.10
2017-11-26T10:00:00.974Z,54.30
2017-11-26T10:02:29.671Z,54.30
2017-11-26T10:04:58.554Z,54.60
2017-11-26T10:07:27.449Z,54.80
2017-11-26T10:09:56.148Z,54.20
2017-11-26T10:12:25.232Z,54.20
2017-11-26T10:14:54.741Z,53.60
2017-11-26T11:19:49.348Z,56.80
2017-11-26T11:22:18.238Z,56.80
2017-11-26T11:24:47.127Z,56.60
2017-11-26T11:27:16.838Z,56.90
2017-11-26T11:29:45.540Z,56.80
2017-11-26T11:32:14.219Z,56.20
2017-11-26T11:34:43.110Z,56.10
2017-11-26T11:37:12.006Z,56.00
2017-11-26T11:39:40.683Z,55.60
2017-11-26T11:42:09.343Z,55.80
2017-11-26T11:44:38.054Z,55.70
2017-11-26T11:47:06.740Z,55.60
2017-11-26T11:49:35.628Z,55.40
2017-11-26T11:52:04.525Z,55.40
2017-11-26T11:54:34.229Z,55.80
2017-11-26T11:57:03.148Z,55.80
2017-11-26T11:59:32.022Z,55.80
2017-11-26T12:02:00.913Z,55.50
2017-11-26T12:04:29.902Z,55.10
2017-11-26T12:06:58.790Z,55.30
2017-11-26T12:09:27.890Z,55.40
2017-11-26T12:11:56.988Z,54.10
2017-11-26T12:14:26.162Z,54.10
2017-11-26T12:16:55.069Z,54.50
2017-11-26T12:19:24.578Z,54.50
2017-11-26T12:21:53.466Z,54.90
2017-11-26T12:24:22.390Z,54.90
2017-11-26T12:26:52.090Z,54.30
2017-11-26T12:29:20.958Z,54.30
2017-11-26T12:31:49.950Z,54.00
2017-11-26T12:34:18.842Z,54.20
2017-11-26T12:36:47.748Z,54.50
2017-11-26T12:39:16.624Z,54.60
2017-11-26T12:41:46.325Z,54.30
2017-11-26T12:44:15.226Z,54.10
2017-11-26T12:46:44.117Z,54.90
2017-11-26T12:49:13.006Z,54.80
2017-11-26T12:51:42.102Z,55.10
2017-11-26T12:54:10.992Z,55.10
2017-11-26T12:56:39.883Z,55.00
2017-11-26T12:59:08.774Z,55.00
2017-11-26T13:01:37.669Z,55.00
2017-11-26T13:04:06.557Z,54.60
2017-11-26T13:06:35.449Z,54.70
2017-11-26T13:09:04.342Z,54.60
2017-11-26T13:11:33.229Z,54.60
2017-11-26T13:14:02.939Z,55.30
2017-11-26T13:19:30.014Z,55.20
2017-11-26T13:21:59.003Z,55.00
2017-11-26T13:24:27.896Z,54.30
2017-11-26T13:26:56.992Z,54.20
2017-11-26T13:29:25.880Z,55.40
2017-11-26T13:31:54.978Z,54.50
2017-11-26T13:34:23.869Z,53.10
2017-11-26T13:36:53.578Z,52.80
2017-11-26T13:39:22.471Z,52.70
2017-11-26T13:41:52.382Z,53.00
2017-11-26T13:44:21.619Z,53.00
2017-11-26T13:46:50.586Z,53.00
2017-11-26T13:49:20.285Z,52.70
2017-11-26T13:51:49.997Z,52.60
2017-11-26T13:54:19.707Z,52.70
2017-11-26T13:56:48.595Z,52.60
2017-11-26T13:59:18.307Z,52.30
2017-11-26T14:01:48.228Z,52.70
2017-11-26T14:04:17.931Z,53.20
2017-11-26T14:06:47.169Z,53.20
2017-11-26T14:09:16.006Z,53.70
2017-11-26T14:11:44.825Z,53.40
2017-11-26T14:14:14.456Z,54.60
2017-11-26T14:16:43.308Z,54.50
2017-11-26T14:19:13.030Z,56.10
2017-11-26T14:21:42.020Z,56.00
2017-11-26T14:24:11.108Z,56.00
2017-11-26T14:26:39.999Z,56.10
2017-11-26T14:29:08.890Z,56.10
2017-11-26T14:31:38.191Z,56.20
2017-11-26T14:34:08.105Z,55.70
2017-11-26T14:36:36.997Z,55.70
2017-11-26T14:39:05.887Z,55.90
2017-11-26T14:41:35.597Z,54.00
2017-11-26T14:44:05.308Z,51.30
2017-11-26T14:46:34.408Z,51.80
2017-11-26T14:49:03.507Z,49.40
2017-11-26T14:51:32.390Z,47.20
2017-11-26T14:54:01.486Z,46.30
2017-11-26T14:56:30.384Z,48.20
2017-11-26T14:58:59.268Z,50.50
2017-11-26T15:01:28.947Z,53.10
2017-11-26T15:03:58.176Z,53.00
2017-11-26T15:06:27.171Z,52.90
2017-11-26T15:08:56.830Z,53.40
2017-11-26T15:11:25.772Z,53.40
2017-11-26T15:13:55.482Z,53.80
2017-11-26T15:16:25.206Z,53.80
2017-11-26T15:18:54.491Z,53.80
2017-11-26T15:21:23.382Z,53.90
2017-11-26T15:23:53.093Z,54.40
2017-11-26T15:26:22.821Z,54.20
2017-11-26T15:28:52.721Z,54.70
2017-11-26T15:31:22.429Z,54.50
2017-11-26T15:33:52.551Z,54.50
2017-11-26T15:36:21.850Z,54.40
2017-11-26T15:38:51.559Z,54.10
2017-11-26T15:41:21.294Z,54.80
2017-11-26T15:43:50.367Z,54.50
2017-11-26T15:46:20.079Z,55.10
2017-11-26T15:48:49.786Z,55.60
2017-11-26T15:51:19.913Z,55.80
2017-11-26T15:53:49.191Z,55.80
2017-11-26T15:56:18.946Z,56.20
2017-11-26T15:58:48.775Z,55.90
2017-11-26T16:01:17.871Z,55.90
2017-11-26T16:03:46.824Z,56.20
2017-11-26T16:06:16.529Z,56.40
2017-11-26T16:08:45.319Z,56.40
2017-11-26T16:11:14.211Z,56.30
2017-11-26T16:13:43.099Z,56.30
2017-11-26T16:16:11.933Z,56.00
2017-11-26T16:18:40.881Z,55.60
2017-11-26T16:21:09.772Z,54.40
2017-11-26T16:23:38.870Z,54.20
2017-11-26T16:26:07.760Z,53.60
2017-11-26T16:28:36.651Z,50.60
2017-11-26T16:31:06.360Z,48.90
2017-11-26T16:33:35.251Z,48.90
2017-11-26T16:36:04.143Z,48.10
2017-11-26T16:38:33.856Z,47.90
2017-11-26T16:41:02.743Z,47.40
2017-11-26T16:43:31.635Z,47.30
2017-11-26T16:46:01.351Z,47.20
2017-11-26T16:48:30.194Z,47.20
2017-11-26T16:50:59.127Z,46.30
2017-11-26T16:53:28.020Z,45.80
2017-11-26T16:55:56.933Z,45.40
2017-11-26T16:58:26.852Z,45.80
2017-11-26T17:00:56.739Z,45.60
2017-11-26T17:03:25.640Z,45.60
2017-11-26T17:05:55.795Z,45.50
2017-11-26T17:08:25.055Z,45.50
2017-11-26T17:10:53.943Z,45.30
2017-11-26T17:13:23.047Z,46.40
2017-11-26T17:15:51.931Z,45.20
2017-11-26T17:18:22.053Z,44.40
2017-11-26T17:20:51.359Z,44.40
2017-11-26T17:23:21.274Z,43.50
2017-11-26T17:25:50.977Z,43.80
2017-11-26T17:28:20.034Z,43.70
2017-11-26T17:30:49.137Z,43.50
2017-11-26T17:33:18.091Z,43.10
2017-11-26T17:35:47.056Z,43.40
2017-11-26T17:38:16.544Z,43.50
2017-11-26T17:40:46.164Z,42.30
2017-11-26T17:43:15.272Z,41.80
2017-11-26T17:45:44.328Z,42.10
2017-11-26T17:48:13.460Z,42.20
2017-11-26T17:50:43.161Z,42.00
2017-11-26T17:53:12.053Z,42.00
2017-11-26T17:55:41.155Z,42.40
2017-11-26T17:58:10.155Z,42.60
2017-11-26T18:00:39.137Z,42.50
2017-11-26T18:03:08.233Z,42.50
2017-11-26T18:05:37.125Z,43.00
2017-11-26T18:08:06.018Z,42.50
2017-11-26T18:10:34.906Z,42.60
2017-11-26T18:13:03.797Z,43.20
2017-11-26T18:15:32.689Z,42.40
2017-11-26T18:18:01.797Z,42.90
2017-11-26T18:20:30.865Z,43.20
2017-11-26T18:22:59.770Z,43.40
2017-11-26T18:25:28.838Z,42.70
2017-11-26T18:27:57.555Z,42.60
2017-11-26T18:30:26.237Z,43.40
2017-11-26T18:32:55.131Z,43.80
2017-11-26T18:35:23.820Z,44.20
2017-11-26T18:37:52.710Z,44.50
2017-11-26T18:40:21.401Z,45.40
2017-11-26T18:42:50.082Z,45.50
2017-11-26T18:45:18.973Z,45.10
2017-11-26T18:47:47.863Z,45.40
2017-11-26T18:50:17.571Z,45.70
2017-11-26T18:52:46.299Z,45.30
2017-11-26T18:55:15.303Z,45.30
2017-11-26T18:57:44.001Z,45.50
2017-11-26T19:00:12.725Z,44.70
2017-11-26T19:02:41.624Z,45.20
2017-11-26T19:05:10.508Z,44.30
2017-11-26T19:07:39.194Z,44.30
2017-11-26T19:10:08.085Z,44.50
2017-11-26T19:12:36.773Z,44.10
2017-11-26T19:15:05.481Z,44.00
2017-11-26T19:17:34.351Z,44.00
2017-11-26T19:20:03.035Z,44.00
2017-11-26T19:22:31.936Z,43.80
2017-11-26T19:25:00.821Z,44.00
2017-11-26T19:27:29.719Z,43.80
2017-11-26T19:29:58.600Z,43.80
2017-11-26T19:32:27.519Z,44.00
2017-11-26T19:34:57.200Z,44.20
2017-11-26T19:37:26.094Z,44.10
2017-11-26T19:39:55.302Z,44.10
2017-11-26T19:42:24.090Z,43.40
2017-11-26T19:44:52.969Z,43.80
2017-11-26T19:47:21.863Z,43.60
2017-11-26T19:49:50.756Z,43.90
2017-11-26T19:52:19.435Z,43.70
2017-11-26T19:54:48.333Z,43.70
2017-11-26T19:57:17.220Z,43.90
2017-11-26T19:59:46.111Z,44.10
2017-11-26T20:02:15.005Z,44.30
2017-11-26T20:04:44.715Z,45.10
2017-11-26T20:07:14.216Z,45.70
2017-11-26T20:09:43.111Z,45.80
2017-11-26T20:12:12.007Z,46.30
2017-11-26T20:14:49.701Z,46.40
2017-11-26T20:17:18.589Z,46.60
2017-11-26T20:19:47.485Z,46.90
2017-11-26T20:22:16.369Z,46.90
2017-11-26T20:24:45.067Z,47.30
2017-11-26T20:27:13.745Z,47.60
2017-11-26T20:29:42.634Z,47.90
2017-11-26T20:32:11.523Z,48.10
2017-11-26T20:34:40.421Z,48.40
2017-11-26T20:37:09.410Z,48.70
2017-11-26T20:39:38.195Z,48.60
2017-11-26T20:42:07.086Z,48.90
2017-11-26T20:44:36.390Z,49.40
2017-11-26T20:47:05.078Z,50.10
2017-11-26T20:49:33.770Z,51.30
2017-11-26T20:52:02.654Z,52.90
2017-11-26T20:54:31.542Z,53.30
2017-11-26T20:57:00.347Z,53.90
2017-11-26T20:59:30.048Z,54.30
2017-11-26T21:01:58.937Z,54.30
2017-11-26T21:04:27.577Z,54.70
2017-11-26T21:06:56.307Z,55.00
2017-11-26T21:09:25.104Z,54.90
2017-11-26T21:11:53.892Z,55.00
2017-11-26T21:14:22.985Z,55.20
2017-11-26T21:16:51.876Z,55.20
2017-11-26T21:19:20.768Z,55.30
2017-11-26T21:21:49.818Z,55.60
2017-11-26T21:24:18.764Z,55.50
2017-11-26T21:26:47.646Z,55.50
2017-11-26T21:29:16.490Z,55.00
2017-11-26T21:31:45.161Z,54.60
2017-11-26T21:34:14.058Z,54.90
2017-11-26T21:36:43.211Z,54.30
2017-11-26T21:39:12.094Z,53.70
2017-11-26T21:41:40.989Z,53.60
2017-11-26T21:44:09.881Z,53.60
2017-11-26T21:46:38.564Z,53.70
2017-11-26T21:49:07.454Z,53.20
2017-11-26T21:51:36.343Z,52.70
2017-11-26T21:54:05.236Z,52.20
2017-11-26T21:56:34.128Z,51.80
2017-11-26T21:59:03.029Z,52.00
2017-11-26T22:01:31.907Z,51.30
2017-11-26T22:04:00.580Z,50.60
2017-11-26T22:06:29.245Z,50.40
2017-11-26T22:08:57.974Z,50.10
2017-11-26T22:11:26.810Z,49.80
2017-11-26T22:13:55.754Z,50.20
2017-11-26T22:16:24.435Z,50.40
2017-11-26T22:18:53.118Z,50.40
2017-11-26T22:21:22.010Z,50.70
2017-11-26T22:23:50.847Z,50.80
2017-11-26T22:26:19.587Z,50.60
2017-11-26T22:28:48.252Z,50.80
2017-11-26T22:31:16.996Z,51.00
2017-11-26T22:33:46.398Z,50.90
2017-11-26T22:36:15.137Z,50.80
2017-11-26T22:38:43.838Z,50.90
2017-11-26T22:41:12.736Z,50.70
2017-11-26T22:43:41.621Z,50.70
2017-11-26T22:46:10.309Z,50.50
2017-11-26T22:48:38.953Z,50.30
2017-11-26T22:51:07.680Z,50.40
2017-11-26T22:53:36.365Z,50.60
2017-11-26T22:56:05.050Z,50.60
2017-11-26T22:58:33.947Z,50.80
2017-11-26T23:01:02.835Z,51.10
2017-11-26T23:03:32.566Z,50.90
2017-11-26T23:06:02.048Z,50.60
2017-11-26T23:08:30.734Z,50.60
2017-11-26T23:10:59.364Z,50.70
2017-11-26T23:13:28.284Z,51.00
2017-11-26T23:15:57.713Z,51.10
2017-11-26T23:18:26.401Z,51.10
2017-11-26T23:20:55.292Z,51.20
2017-11-26T23:26:21.339Z,51.50
2017-11-26T23:28:50.023Z,51.60
2017-11-26T23:31:18.711Z,51.60
2017-11-26T23:33:47.408Z,51.70
2017-11-26T23:36:16.288Z,52.00
2017-11-26T23:38:45.178Z,51.80
2017-11-26T23:41:14.273Z,51.90
2017-11-26T23:43:42.958Z,51.80
2017-11-26T23:46:12.773Z,51.60
2017-11-26T23:48:41.617Z,51.60
2017-11-26T23:57:04.966Z,51.20
2017-11-26T23:59:33.651Z,51.30
